Terminal Aerodrome Forecast
Issued by NWS Paducah, KY

Home | Current Version | Previous Version | Text Only | Print | Product List | Glossary On
Versions: 1 2 3 4 5 6 7 8 9 10 11 12 13 14 15 16 17 18 19
000
FTUS43 KPAH 221503 AAB
TAFPAH
TAF AMD
KPAH 221503Z 2215/2312 16012KT P6SM VCSH BKN018 OVC035
     FM230000 16008KT 6SM -SHRA BKN020
     FM230900 17009KT 5SM SHRA BR BKN015=

USA.gov is the U.S. government's official web portal to all federal, state and local government web resources and services.